createdAt,value
2017-10-26T00:02:22.648Z,11.73
2017-10-26T00:04:50.227Z,11.37
2017-10-26T00:07:17.868Z,12.33
2017-10-26T00:09:45.529Z,11.27
2017-10-26T00:12:13.087Z,10.47
2017-10-26T00:14:40.715Z,15.23
2017-10-26T00:17:09.066Z,12.13
2017-10-26T00:19:36.662Z,10.57
2017-10-26T00:22:04.235Z,13.77
2017-10-26T00:24:31.827Z,10.10
2017-10-26T00:26:59.491Z,11.30
2017-10-26T00:29:27.048Z,9.80
2017-10-26T00:31:54.631Z,11.10
2017-10-26T00:34:22.209Z,18.33
2017-10-26T00:36:50.601Z,14.13
2017-10-26T00:39:18.164Z,11.50
2017-10-26T00:41:45.731Z,12.43
2017-10-26T00:44:13.325Z,12.00
2017-10-26T00:46:40.896Z,13.93
2017-10-26T00:49:09.255Z,12.50
2017-10-26T00:51:36.811Z,13.83
2017-10-26T00:54:04.752Z,10.97
2017-10-26T00:56:32.322Z,10.97
2017-10-26T00:58:59.899Z,13.70
2017-10-26T01:01:27.496Z,14.33
2017-10-26T01:03:55.818Z,16.17
2017-10-26T01:06:23.429Z,15.80
2017-10-26T01:08:51.836Z,13.50
2017-10-26T01:11:19.503Z,17.80
2017-10-26T01:13:47.071Z,21.70
2017-10-26T01:16:14.639Z,17.30
2017-10-26T01:18:42.240Z,16.93
2017-10-26T01:21:10.611Z,18.40
2017-10-26T01:23:38.219Z,16.97
2017-10-26T01:26:05.778Z,17.70
2017-10-26T01:28:33.348Z,17.83
2017-10-26T01:31:00.995Z,20.97
2017-10-26T01:33:28.594Z,22.43
2017-10-26T01:35:56.183Z,21.13
2017-10-26T01:38:24.511Z,18.23
2017-10-26T01:40:52.127Z,23.03
2017-10-26T01:43:19.700Z,20.97
2017-10-26T01:45:47.359Z,22.93
2017-10-26T01:48:14.944Z,21.17
2017-10-26T01:50:42.537Z,21.60
2017-10-26T01:53:10.142Z,22.27
2017-10-26T01:55:37.720Z,19.30
2017-10-26T01:58:05.454Z,23.70
2017-10-26T02:00:33.022Z,22.40
2017-10-26T02:03:00.646Z,23.50
2017-10-26T02:05:28.987Z,23.17
2017-10-26T02:07:56.579Z,24.57
2017-10-26T02:10:24.946Z,21.67
2017-10-26T02:12:52.511Z,26.50
2017-10-26T02:15:20.932Z,23.43
2017-10-26T02:17:48.503Z,18.77
2017-10-26T02:20:16.251Z,22.40
2017-10-26T02:22:43.816Z,20.20
2017-10-26T02:25:12.291Z,18.40
2017-10-26T02:27:39.857Z,19.90
2017-10-26T02:30:19.480Z,19.37
2017-10-26T02:32:47.085Z,23.47
2017-10-26T02:35:14.711Z,21.03
2017-10-26T02:37:42.532Z,21.47
2017-10-26T02:40:10.926Z,24.07
2017-10-26T02:42:38.542Z,22.80
2017-10-26T02:45:06.108Z,25.10
2017-10-26T02:47:35.181Z,24.27
2017-10-26T02:50:02.777Z,20.37
2017-10-26T02:52:31.141Z,28.17
2017-10-26T02:54:58.756Z,24.13
2017-10-26T02:57:26.353Z,20.00
2017-10-26T02:59:54.079Z,21.87
2017-10-26T03:02:21.643Z,22.87
2017-10-26T03:04:49.255Z,31.50
2017-10-26T03:07:17.622Z,25.90
2017-10-26T03:09:45.192Z,22.47
2017-10-26T03:12:13.568Z,21.93
2017-10-26T03:14:41.908Z,28.03
2017-10-26T03:17:09.515Z,28.23
2017-10-26T03:19:37.912Z,25.00
2017-10-26T03:22:05.486Z,24.90
2017-10-26T03:24:33.098Z,27.77
2017-10-26T03:27:01.440Z,22.10
2017-10-26T03:29:29.047Z,22.97
2017-10-26T03:31:57.371Z,23.77
2017-10-26T03:34:24.968Z,28.23
2017-10-26T03:36:53.327Z,21.17
2017-10-26T03:39:20.897Z,26.33
2017-10-26T03:41:48.488Z,22.73
2017-10-26T03:44:16.053Z,28.87
2017-10-26T03:46:43.841Z,25.40
2017-10-26T03:49:11.427Z,24.70
2017-10-26T03:51:39.026Z,24.83
2017-10-26T03:54:06.620Z,26.70
2017-10-26T03:56:34.222Z,32.03
2017-10-26T03:59:02.595Z,29.53
2017-10-26T04:01:30.255Z,32.23
2017-10-26T04:03:57.878Z,31.73
2017-10-26T04:06:25.440Z,33.93
2017-10-26T04:08:53.024Z,33.30
2017-10-26T04:11:20.607Z,29.87
2017-10-26T04:13:48.941Z,31.87
2017-10-26T04:16:16.539Z,30.13
2017-10-26T04:18:44.963Z,32.50
2017-10-26T04:21:12.559Z,31.50
2017-10-26T04:23:41.644Z,29.40
2017-10-26T04:26:09.982Z,31.77
2017-10-26T04:28:37.946Z,28.90
2017-10-26T04:31:05.526Z,27.90
2017-10-26T04:33:33.099Z,30.40
2017-10-26T04:36:00.686Z,29.67
2017-10-26T04:38:29.015Z,33.40
2017-10-26T04:40:56.612Z,35.67
2017-10-26T04:43:24.194Z,31.40
2017-10-26T04:45:51.808Z,27.70
2017-10-26T04:48:19.402Z,26.33
2017-10-26T04:50:47.796Z,27.67
2017-10-26T04:53:15.390Z,25.07
2017-10-26T04:55:42.960Z,28.73
2017-10-26T04:58:10.880Z,25.97
2017-10-26T05:00:38.447Z,32.53
2017-10-26T05:03:06.016Z,30.60
2017-10-26T05:05:33.607Z,30.90
2017-10-26T05:08:01.211Z,27.50
2017-10-26T05:10:28.775Z,28.20
2017-10-26T05:12:56.403Z,29.67
2017-10-26T05:15:24.022Z,26.90
2017-10-26T05:17:51.578Z,31.10
2017-10-26T05:20:19.174Z,30.73
2017-10-26T05:22:46.745Z,32.57
2017-10-26T05:25:15.143Z,34.43
2017-10-26T05:27:42.743Z,36.07
2017-10-26T05:30:10.348Z,32.90
2017-10-26T05:32:38.702Z,48.70
2017-10-26T05:35:07.032Z,57.33
2017-10-26T05:37:34.696Z,48.33
2017-10-26T05:40:02.270Z,35.90
2017-10-26T05:42:29.836Z,39.77
2017-10-26T05:44:57.439Z,33.73
2017-10-26T05:47:25.774Z,39.07
2017-10-26T05:49:53.382Z,38.17
2017-10-26T05:52:21.870Z,37.83
2017-10-26T05:54:49.479Z,42.33
2017-10-26T05:57:17.045Z,32.93
2017-10-26T05:59:44.644Z,34.43
2017-10-26T06:02:12.212Z,40.17
2017-10-26T06:04:39.880Z,40.23
2017-10-26T06:07:07.439Z,30.90
2017-10-26T06:09:35.118Z,32.10
2017-10-26T06:12:02.760Z,28.80
2017-10-26T06:14:30.319Z,28.43
2017-10-26T06:16:57.903Z,30.10
2017-10-26T06:19:25.480Z,28.33
2017-10-26T06:21:53.835Z,33.50
2017-10-26T06:24:21.410Z,27.70
2017-10-26T06:26:49.112Z,33.80
2017-10-26T06:29:16.703Z,35.10
2017-10-26T06:31:44.282Z,27.47
2017-10-26T06:34:11.882Z,33.83
2017-10-26T06:36:40.317Z,30.33
2017-10-26T06:39:07.919Z,32.77
2017-10-26T06:41:36.290Z,28.80
2017-10-26T06:44:04.627Z,38.60
2017-10-26T06:46:32.223Z,36.97
2017-10-26T06:49:00.647Z,40.90
2017-10-26T06:51:28.236Z,35.13
2017-10-26T06:53:55.812Z,29.10
2017-10-26T06:56:23.719Z,34.70
2017-10-26T06:58:51.348Z,29.47
2017-10-26T07:01:19.687Z,30.10
2017-10-26T07:03:47.320Z,30.63
2017-10-26T07:06:14.879Z,33.87
2017-10-26T07:08:42.474Z,32.13
2017-10-26T07:11:10.054Z,28.17
2017-10-26T07:13:38.410Z,26.30
2017-10-26T07:16:06.015Z,24.67
2017-10-26T07:18:33.635Z,23.30
2017-10-26T07:21:01.235Z,23.27
2017-10-26T07:23:28.806Z,39.70
2017-10-26T07:25:56.415Z,27.00
2017-10-26T07:28:23.980Z,19.10
2017-10-26T07:30:52.305Z,19.97
2017-10-26T07:33:19.899Z,20.53
2017-10-26T07:35:49.060Z,23.63
2017-10-26T07:38:16.665Z,21.47
2017-10-26T07:40:44.254Z,19.40
2017-10-26T07:43:11.878Z,18.77
2017-10-26T07:45:40.216Z,19.70
2017-10-26T07:48:07.878Z,21.87
2017-10-26T07:50:35.487Z,18.83
2017-10-26T07:53:03.893Z,23.63
2017-10-26T07:55:31.491Z,26.50
2017-10-26T07:57:59.073Z,30.50
2017-10-26T08:00:27.456Z,28.27
2017-10-26T08:02:55.088Z,33.90
2017-10-26T08:05:22.688Z,29.20
2017-10-26T08:07:51.032Z,24.47
2017-10-26T08:10:18.647Z,24.23
2017-10-26T08:12:46.259Z,26.77
2017-10-26T08:15:13.819Z,30.90
2017-10-26T08:17:41.438Z,25.13
2017-10-26T08:20:09.015Z,22.10
2017-10-26T08:22:36.581Z,24.80
2017-10-26T08:25:04.175Z,21.50
2017-10-26T08:27:32.522Z,22.73
2017-10-26T08:30:00.555Z,27.30
2017-10-26T08:32:28.124Z,18.03
2017-10-26T08:34:55.685Z,11.53
2017-10-26T08:37:23.303Z,10.80
2017-10-26T08:39:51.659Z,14.03
2017-10-26T08:42:19.299Z,8.40
2017-10-26T08:44:46.868Z,16.50
2017-10-26T08:47:15.210Z,22.90
2017-10-26T08:49:42.807Z,16.60
2017-10-26T08:52:10.427Z,16.87
2017-10-26T08:54:38.027Z,16.07
2017-10-26T08:57:05.595Z,13.23
2017-10-26T08:59:33.974Z,18.90
2017-10-26T09:02:02.309Z,16.67
2017-10-26T09:04:29.947Z,14.50
2017-10-26T09:06:57.563Z,13.27
2017-10-26T09:09:25.165Z,17.20
2017-10-26T09:11:52.948Z,18.90
2017-10-26T09:14:20.506Z,12.57
2017-10-26T09:16:48.115Z,14.93
2017-10-26T09:19:16.459Z,19.70
2017-10-26T09:21:44.181Z,12.97
2017-10-26T09:24:11.816Z,13.77
2017-10-26T09:26:40.163Z,20.20
2017-10-26T09:29:07.762Z,16.23
2017-10-26T09:31:36.087Z,10.63
2017-10-26T09:34:03.713Z,13.53
2017-10-26T09:36:31.280Z,20.40
2017-10-26T09:38:58.854Z,11.67
2017-10-26T09:41:26.451Z,13.40
2017-10-26T09:43:54.019Z,13.90
2017-10-26T09:46:22.371Z,16.67
2017-10-26T09:48:49.964Z,14.53
2017-10-26T09:51:18.332Z,13.93
2017-10-26T09:53:46.676Z,17.20
2017-10-26T09:56:14.271Z,16.40
2017-10-26T09:58:42.827Z,21.47
2017-10-26T10:01:10.401Z,15.30
2017-10-26T10:03:38.760Z,16.47
2017-10-26T10:06:06.328Z,17.70
2017-10-26T10:08:33.993Z,21.20
2017-10-26T10:11:01.565Z,16.83
2017-10-26T10:13:29.928Z,16.10
2017-10-26T10:15:57.487Z,16.63
2017-10-26T10:18:25.087Z,15.10
2017-10-26T10:20:52.688Z,13.43
2017-10-26T10:23:20.268Z,13.70
2017-10-26T10:25:48.630Z,12.70
2017-10-26T10:28:16.199Z,18.03
2017-10-26T10:30:44.567Z,19.67
2017-10-26T10:33:12.123Z,13.13
2017-10-26T10:35:39.764Z,14.73
2017-10-26T10:38:07.423Z,15.03
2017-10-26T10:40:35.156Z,16.77
2017-10-26T10:43:02.750Z,17.70
2017-10-26T10:45:30.436Z,11.10
2017-10-26T10:47:59.553Z,12.37
2017-10-26T10:50:27.125Z,18.50
2017-10-26T10:52:54.719Z,11.03
2017-10-26T10:55:22.291Z,12.90
2017-10-26T10:57:50.654Z,14.27
2017-10-26T11:00:23.830Z,13.33
2017-10-26T11:02:51.401Z,17.53
2017-10-26T11:05:18.999Z,10.27
2017-10-26T11:07:47.406Z,9.43
2017-10-26T11:10:15.003Z,9.47
2017-10-26T11:12:42.652Z,11.40
2017-10-26T11:15:10.419Z,10.40
2017-10-26T11:17:38.032Z,12.50
2017-10-26T11:20:05.619Z,14.87
2017-10-26T11:22:33.216Z,11.80
2017-10-26T11:25:00.784Z,10.07
2017-10-26T11:27:28.370Z,12.70
2017-10-26T11:29:55.974Z,10.87
2017-10-26T11:32:23.623Z,12.17
2017-10-26T11:34:51.192Z,11.60
2017-10-26T11:37:18.767Z,13.97
2017-10-26T11:39:46.489Z,11.40
2017-10-26T11:42:14.069Z,9.83
2017-10-26T11:44:41.736Z,9.50
2017-10-26T11:47:09.331Z,12.43
2017-10-26T11:49:37.752Z,8.40
2017-10-26T11:52:05.319Z,11.87
2017-10-26T11:54:33.017Z,8.50
2017-10-26T11:57:00.669Z,10.23
2017-10-26T11:59:29.009Z,10.03
2017-10-26T12:01:56.607Z,10.73
2017-10-26T12:04:25.667Z,10.47
2017-10-26T12:06:53.307Z,18.80
2017-10-26T12:09:20.864Z,9.60
2017-10-26T12:11:48.487Z,10.77
2017-10-26T12:14:16.878Z,12.17
2017-10-26T12:16:44.491Z,14.13
2017-10-26T12:19:12.103Z,13.80
2017-10-26T12:21:39.890Z,9.80
2017-10-26T12:24:07.475Z,10.77
2017-10-26T12:26:35.043Z,11.50
2017-10-26T12:29:02.651Z,11.23
2017-10-26T12:31:30.207Z,8.63
2017-10-26T12:33:57.852Z,9.70
2017-10-26T12:36:26.214Z,12.67
2017-10-26T12:38:53.788Z,7.77
2017-10-26T12:41:22.164Z,9.33
2017-10-26T12:43:50.507Z,6.57
2017-10-26T12:46:19.015Z,9.47
2017-10-26T12:48:47.344Z,8.10
2017-10-26T12:51:14.912Z,8.70
2017-10-26T12:53:42.528Z,10.43
2017-10-26T12:56:10.168Z,6.10
2017-10-26T12:58:38.531Z,9.87
2017-10-26T13:01:06.091Z,7.10
2017-10-26T13:03:35.184Z,9.23
2017-10-26T13:06:02.759Z,6.57
2017-10-26T13:08:31.120Z,5.83
2017-10-26T13:10:58.685Z,8.63
2017-10-26T13:13:27.044Z,5.83
2017-10-26T13:15:55.560Z,5.60
2017-10-26T13:18:23.153Z,8.33
2017-10-26T13:20:50.856Z,5.73
2017-10-26T13:23:18.499Z,9.37
2017-10-26T13:25:46.088Z,7.60
2017-10-26T13:28:14.445Z,6.10
2017-10-26T13:30:42.111Z,5.17
2017-10-26T13:33:09.733Z,7.17
2017-10-26T13:35:37.322Z,6.67
2017-10-26T13:38:05.701Z,8.87
2017-10-26T13:40:33.278Z,11.73
2017-10-26T13:43:01.644Z,10.77
2017-10-26T13:45:29.231Z,9.83
2017-10-26T13:47:56.870Z,10.50
2017-10-26T13:50:25.243Z,9.37
2017-10-26T13:52:52.794Z,8.60
2017-10-26T13:55:20.975Z,9.80
2017-10-26T13:57:49.327Z,11.30
2017-10-26T14:00:16.920Z,11.03
2017-10-26T14:02:45.454Z,9.23
2017-10-26T14:05:13.018Z,12.80
2017-10-26T14:07:40.773Z,9.57
2017-10-26T14:10:08.324Z,8.90
2017-10-26T14:12:35.967Z,9.00
2017-10-26T14:15:03.540Z,9.57
2017-10-26T14:17:31.266Z,8.60
2017-10-26T14:19:59.632Z,8.93
2017-10-26T14:22:27.960Z,12.00
2017-10-26T14:24:55.552Z,15.40
2017-10-26T14:27:23.161Z,11.73
2017-10-26T14:29:50.752Z,14.80
2017-10-26T14:32:18.483Z,10.17
2017-10-26T14:34:46.080Z,17.00
2017-10-26T14:37:13.711Z,13.80
2017-10-26T14:39:41.285Z,14.70
2017-10-26T14:42:08.980Z,14.30
2017-10-26T14:44:36.887Z,15.60
2017-10-26T14:47:04.883Z,11.23
2017-10-26T14:49:32.924Z,10.73
2017-10-26T14:52:00.621Z,10.90
2017-10-26T14:54:28.373Z,13.23
2017-10-26T14:56:55.970Z,12.07
2017-10-26T14:59:24.335Z,22.37
2017-10-26T15:01:51.912Z,12.03
2017-10-26T15:04:20.232Z,16.20
2017-10-26T15:06:47.840Z,10.20
2017-10-26T15:09:16.172Z,12.77
2017-10-26T15:11:43.780Z,10.53
2017-10-26T15:14:12.126Z,12.27
2017-10-26T15:16:39.737Z,8.07
2017-10-26T15:19:07.335Z,10.30
2017-10-26T15:21:34.935Z,15.03
2017-10-26T15:24:03.273Z,10.97
2017-10-26T15:26:30.900Z,19.50
2017-10-26T15:28:58.493Z,12.90
2017-10-26T15:31:26.085Z,9.33
2017-10-26T15:33:54.424Z,10.33
2017-10-26T15:36:22.123Z,13.90
2017-10-26T15:38:51.124Z,11.00
2017-10-26T15:41:19.471Z,8.17
2017-10-26T15:43:47.061Z,11.90
2017-10-26T15:46:15.528Z,15.03
2017-10-26T15:48:43.938Z,7.93
2017-10-26T15:51:11.579Z,11.23
2017-10-26T15:53:39.156Z,11.60
2017-10-26T15:56:06.723Z,13.63
2017-10-26T15:58:34.338Z,8.00
2017-10-26T16:01:02.693Z,11.07
2017-10-26T16:03:30.281Z,7.30
2017-10-26T16:05:58.640Z,7.70
2017-10-26T16:08:26.247Z,10.53
2017-10-26T16:10:53.819Z,7.30
2017-10-26T16:13:21.520Z,9.83
2017-10-26T16:15:49.098Z,6.67
2017-10-26T16:18:17.464Z,9.50
2017-10-26T16:20:45.052Z,8.93
2017-10-26T16:23:12.632Z,6.80
2017-10-26T16:25:40.271Z,11.83
2017-10-26T16:28:07.891Z,9.73
2017-10-26T16:30:35.458Z,9.77
2017-10-26T16:33:03.795Z,17.03
2017-10-26T16:35:31.396Z,11.70
2017-10-26T16:37:59.744Z,14.23
2017-10-26T16:40:27.352Z,12.47
2017-10-26T16:42:54.956Z,20.43
2017-10-26T16:45:22.561Z,16.87
2017-10-26T16:47:50.898Z,16.50
2017-10-26T16:50:18.522Z,23.73
2017-10-26T16:52:46.087Z,13.30
2017-10-26T16:55:13.668Z,16.90
2017-10-26T16:57:41.289Z,15.63
2017-10-26T17:00:08.878Z,21.30
2017-10-26T17:02:36.483Z,23.20
2017-10-26T17:05:04.871Z,19.47
2017-10-26T17:07:33.289Z,19.93
2017-10-26T17:10:00.956Z,17.20
2017-10-26T17:12:28.600Z,19.37
2017-10-26T17:14:56.176Z,19.73
2017-10-26T17:17:23.764Z,21.53
2017-10-26T17:19:51.391Z,19.63
2017-10-26T17:22:18.961Z,17.77
2017-10-26T17:24:46.537Z,23.23
2017-10-26T17:27:14.359Z,18.27
2017-10-26T17:29:42.070Z,33.27
2017-10-26T17:32:09.804Z,21.90
2017-10-26T17:34:37.383Z,29.27
2017-10-26T17:37:05.081Z,28.43
2017-10-26T17:39:32.695Z,25.40
2017-10-26T17:42:00.270Z,23.53
2017-10-26T17:44:27.924Z,19.63
2017-10-26T17:46:55.604Z,23.50
2017-10-26T17:49:24.183Z,23.00
2017-10-26T17:51:52.532Z,23.60
2017-10-26T17:54:21.640Z,19.90
2017-10-26T17:56:49.235Z,15.50
2017-10-26T17:59:16.872Z,19.47
2017-10-26T18:01:45.486Z,18.50
2017-10-26T18:04:13.092Z,21.20
2017-10-26T18:06:40.720Z,22.50
2017-10-26T18:09:08.363Z,15.30
2017-10-26T18:11:35.948Z,17.47
2017-10-26T18:14:03.607Z,26.60
2017-10-26T18:16:31.331Z,22.03
2017-10-26T18:18:59.005Z,19.63
2017-10-26T18:21:26.647Z,17.60
2017-10-26T18:23:55.043Z,18.87
2017-10-26T18:26:22.613Z,21.07
2017-10-26T18:28:50.200Z,19.13
2017-10-26T18:31:17.875Z,19.00
2017-10-26T18:33:46.216Z,23.50
2017-10-26T18:36:13.867Z,17.33
2017-10-26T18:38:41.450Z,22.27
2017-10-26T18:41:09.095Z,22.50
2017-10-26T18:43:36.720Z,19.93
2017-10-26T18:46:04.341Z,20.00
2017-10-26T18:48:33.464Z,17.27
2017-10-26T18:51:01.842Z,22.70
2017-10-26T18:53:30.210Z,23.20
2017-10-26T18:55:58.564Z,25.57
2017-10-26T18:58:26.204Z,24.90
2017-10-26T19:00:53.834Z,26.73
2017-10-26T19:03:21.444Z,21.90
2017-10-26T19:05:49.800Z,20.90
2017-10-26T19:08:17.403Z,15.40
2017-10-26T19:10:45.776Z,29.97
2017-10-26T19:13:14.219Z,20.10
2017-10-26T19:15:41.849Z,24.80
2017-10-26T19:18:09.427Z,34.90
2017-10-26T19:20:37.072Z,22.50
2017-10-26T19:23:04.671Z,25.33
2017-10-26T19:25:33.183Z,24.10
2017-10-26T19:28:01.615Z,27.10
2017-10-26T19:30:29.190Z,21.67
2017-10-26T19:32:56.805Z,21.70
2017-10-26T19:35:24.375Z,20.90
2017-10-26T19:37:51.990Z,25.30
2017-10-26T19:40:20.366Z,25.83
2017-10-26T19:42:48.749Z,27.83
2017-10-26T19:45:17.097Z,25.60
2017-10-26T19:47:44.682Z,22.27
2017-10-26T19:50:13.064Z,24.67
2017-10-26T19:52:41.468Z,25.33
2017-10-26T19:55:09.109Z,22.00
2017-10-26T19:57:36.706Z,22.40
2017-10-26T20:00:04.321Z,26.03
2017-10-26T20:02:32.667Z,28.93
2017-10-26T20:05:00.253Z,27.37
2017-10-26T20:07:28.651Z,31.97
2017-10-26T20:09:56.252Z,30.53
2017-10-26T20:12:23.911Z,28.70
2017-10-26T20:14:51.505Z,30.73
2017-10-26T20:17:19.899Z,28.37
2017-10-26T20:19:47.506Z,30.40
2017-10-26T20:22:15.109Z,28.50
2017-10-26T20:24:43.486Z,25.07
2017-10-26T20:27:11.844Z,29.07
2017-10-26T20:29:39.525Z,30.50
2017-10-26T20:32:08.008Z,23.40
2017-10-26T20:34:35.650Z,27.10
2017-10-26T20:37:03.227Z,22.40
2017-10-26T20:39:31.608Z,25.10
2017-10-26T20:41:59.329Z,21.47
2017-10-26T20:44:26.933Z,20.90
2017-10-26T20:46:54.556Z,27.40
2017-10-26T20:49:27.672Z,26.83
2017-10-26T20:52:01.722Z,25.00
2017-10-26T20:54:34.836Z,30.80
2017-10-26T20:57:08.848Z,34.20
2017-10-26T20:59:42.036Z,28.30
2017-10-26T21:02:15.808Z,32.57
2017-10-26T21:04:49.120Z,29.80
2017-10-26T21:07:22.221Z,32.23
2017-10-26T21:09:49.802Z,26.40
2017-10-26T21:12:23.746Z,32.37
2017-10-26T21:14:51.329Z,31.90
2017-10-26T21:17:19.124Z,24.90
2017-10-26T21:19:47.520Z,20.93
2017-10-26T21:22:15.874Z,24.40
2017-10-26T21:24:43.494Z,25.70
2017-10-26T21:27:11.103Z,24.63
2017-10-26T21:29:39.463Z,22.50
2017-10-26T21:32:07.072Z,26.60
2017-10-26T21:34:34.903Z,29.27
2017-10-26T21:37:03.251Z,34.87
2017-10-26T21:39:30.815Z,26.90
2017-10-26T21:41:58.407Z,27.10
2017-10-26T21:44:26.744Z,30.87
2017-10-26T21:46:54.487Z,27.10
2017-10-26T21:49:22.069Z,34.70
2017-10-26T21:51:49.737Z,27.43
2017-10-26T21:54:17.570Z,30.27
2017-10-26T21:56:45.279Z,29.30
2017-10-26T21:59:13.858Z,37.73
2017-10-26T22:01:42.297Z,33.67
2017-10-26T22:04:09.939Z,38.60
2017-10-26T22:06:37.732Z,29.57
2017-10-26T22:09:05.341Z,32.33
2017-10-26T22:11:33.705Z,30.83
2017-10-26T22:14:02.176Z,38.70
2017-10-26T22:16:29.782Z,32.67
2017-10-26T22:18:57.400Z,36.70
2017-10-26T22:21:25.763Z,30.57
2017-10-26T22:23:53.376Z,31.50
2017-10-26T22:26:20.979Z,27.83
2017-10-26T22:28:48.595Z,34.00
2017-10-26T22:31:16.314Z,25.63
2017-10-26T22:33:44.687Z,28.70
2017-10-26T22:36:13.058Z,30.40
2017-10-26T22:38:40.664Z,33.13
2017-10-26T22:41:08.240Z,26.70
2017-10-26T22:43:35.865Z,29.00
2017-10-26T22:46:03.441Z,26.50
2017-10-26T22:48:31.032Z,30.63
2017-10-26T22:50:58.640Z,24.37
2017-10-26T22:53:26.431Z,26.40
2017-10-26T22:55:54.011Z,33.80
2017-10-26T22:58:21.591Z,27.90
2017-10-26T23:00:49.227Z,28.77
2017-10-26T23:03:16.935Z,30.23
2017-10-26T23:05:45.335Z,33.03
2017-10-26T23:08:12.899Z,29.77
2017-10-26T23:10:40.533Z,31.77
2017-10-26T23:13:08.889Z,29.70
2017-10-26T23:15:36.465Z,34.00
2017-10-26T23:18:04.854Z,29.30
2017-10-26T23:20:32.432Z,32.93
2017-10-26T23:23:00.147Z,31.97
2017-10-26T23:25:27.749Z,27.77
2017-10-26T23:27:55.319Z,29.53
2017-10-26T23:30:22.926Z,29.27
2017-10-26T23:32:51.264Z,23.33
2017-10-26T23:35:18.858Z,21.97
2017-10-26T23:37:46.438Z,23.77
2017-10-26T23:40:14.815Z,23.03
2017-10-26T23:42:43.283Z,20.40
2017-10-26T23:45:11.664Z,34.83
2017-10-26T23:47:40.044Z,28.93
2017-10-26T23:50:08.507Z,28.10
2017-10-26T23:52:36.105Z,27.83
2017-10-26T23:55:03.783Z,29.90
2017-10-26T23:57:31.387Z,26.37
2017-10-26T23:59:59.021Z,42.53
